createdAt,value
2019-03-31T00:02:20.691Z,32.47
2019-03-31T00:04:48.502Z,33.63
2019-03-31T00:07:16.165Z,34.03
2019-03-31T00:09:43.910Z,40.67
2019-03-31T00:12:11.692Z,40.10
2019-03-31T00:14:39.477Z,37.80
2019-03-31T00:17:07.224Z,38.00
2019-03-31T00:19:35.021Z,36.90
2019-03-31T00:22:03.342Z,35.80
2019-03-31T00:24:31.210Z,35.30
2019-03-31T00:26:58.955Z,30.80
2019-03-31T00:29:26.619Z,31.20
2019-03-31T00:31:54.375Z,30.13
2019-03-31T00:34:22.225Z,30.93
2019-03-31T00:36:49.962Z,31.17
2019-03-31T00:39:17.639Z,31.70
2019-03-31T00:41:45.689Z,29.47
2019-03-31T00:44:13.351Z,29.30
2019-03-31T00:46:41.139Z,27.93
2019-03-31T00:49:08.887Z,28.20
2019-03-31T00:51:36.941Z,27.23
2019-03-31T00:54:04.575Z,28.00
2019-03-31T00:56:32.371Z,28.40
2019-03-31T00:59:00.079Z,28.13
2019-03-31T01:01:37.227Z,28.83
2019-03-31T01:04:05.468Z,27.60
2019-03-31T01:06:33.769Z,27.40
2019-03-31T01:09:03.797Z,28.10
2019-03-31T01:11:31.562Z,29.30
2019-03-31T01:13:59.445Z,26.93
2019-03-31T01:16:29.951Z,26.03
2019-03-31T01:18:57.759Z,28.87
2019-03-31T01:21:25.446Z,27.47
2019-03-31T01:23:53.229Z,26.13
2019-03-31T01:26:21.299Z,26.93
2019-03-31T01:28:49.229Z,26.50
2019-03-31T01:31:17.090Z,25.40
2019-03-31T01:33:44.840Z,27.60
2019-03-31T01:36:13.374Z,29.00
2019-03-31T01:38:41.110Z,24.17
2019-03-31T01:41:09.263Z,24.57
2019-03-31T01:43:37.067Z,24.47
2019-03-31T01:46:06.752Z,25.03
2019-03-31T01:48:34.775Z,24.73
2019-03-31T01:51:02.660Z,23.87
2019-03-31T01:53:30.463Z,23.00
2019-03-31T01:55:58.236Z,22.13
2019-03-31T01:58:26.078Z,24.33
2019-03-31T02:00:57.300Z,25.07
2019-03-31T02:03:25.070Z,23.63
2019-03-31T02:05:52.895Z,22.43
2019-03-31T02:08:20.572Z,22.03
2019-03-31T02:10:48.311Z,25.00
2019-03-31T02:13:16.010Z,27.70
2019-03-31T02:15:43.670Z,26.20
2019-03-31T02:18:11.451Z,24.30
2019-03-31T02:20:39.623Z,24.60
2019-03-31T02:23:07.355Z,21.70
2019-03-31T02:25:35.098Z,22.47
2019-03-31T02:28:02.910Z,23.60
2019-03-31T02:30:30.673Z,23.87
2019-03-31T02:32:58.472Z,24.13
2019-03-31T02:35:26.133Z,24.50
2019-03-31T02:37:53.938Z,24.87
2019-03-31T02:40:21.939Z,26.27
2019-03-31T02:42:49.703Z,26.53
2019-03-31T02:45:17.480Z,26.17
2019-03-31T02:47:45.240Z,26.07
2019-03-31T02:50:24.478Z,23.83
2019-03-31T02:52:52.569Z,24.17
2019-03-31T02:55:20.316Z,27.57
2019-03-31T02:57:48.389Z,24.07
2019-03-31T03:00:16.114Z,24.43
2019-03-31T03:02:43.975Z,21.60
2019-03-31T03:05:19.451Z,19.90
2019-03-31T03:07:44.428Z,20.97
2019-03-31T03:10:12.315Z,20.93
2019-03-31T03:12:43.492Z,23.00
2019-03-31T03:15:13.152Z,22.07
2019-03-31T03:17:41.200Z,22.00
2019-03-31T03:20:09.277Z,25.10
2019-03-31T03:22:37.441Z,22.87
2019-03-31T03:25:05.607Z,23.03
2019-03-31T03:27:33.397Z,21.10
2019-03-31T03:30:01.225Z,21.57
2019-03-31T03:32:29.396Z,21.17
2019-03-31T03:34:57.162Z,22.27
2019-03-31T03:37:24.986Z,23.20
2019-03-31T03:39:52.893Z,22.70
2019-03-31T03:42:20.687Z,22.27
2019-03-31T03:44:48.492Z,21.63
2019-03-31T03:47:16.123Z,23.90
2019-03-31T03:49:43.892Z,21.63
2019-03-31T03:52:11.676Z,23.07
2019-03-31T03:54:39.442Z,22.60
2019-03-31T03:57:07.191Z,21.40
2019-03-31T03:59:34.916Z,21.87
2019-03-31T04:02:02.776Z,21.40
2019-03-31T04:04:30.822Z,21.20
2019-03-31T04:06:58.557Z,22.10
2019-03-31T04:09:26.362Z,19.53
2019-03-31T04:11:54.327Z,22.20
2019-03-31T04:14:22.028Z,20.70
2019-03-31T04:16:49.763Z,20.80
2019-03-31T04:19:17.465Z,23.33
2019-03-31T04:21:45.384Z,21.43
2019-03-31T04:24:13.184Z,21.60
2019-03-31T04:26:40.923Z,21.70
2019-03-31T04:29:08.715Z,22.40
2019-03-31T04:31:36.503Z,23.63
2019-03-31T04:34:04.246Z,19.73
2019-03-31T04:36:32.023Z,21.20
2019-03-31T04:39:00.469Z,21.83
2019-03-31T04:41:28.684Z,21.27
2019-03-31T04:43:56.434Z,21.13
2019-03-31T04:46:24.506Z,20.53
2019-03-31T04:48:52.520Z,21.60
2019-03-31T04:51:20.316Z,20.33
2019-03-31T04:53:48.107Z,21.37
2019-03-31T04:56:15.761Z,19.53
2019-03-31T04:58:43.550Z,21.10
2019-03-31T05:01:11.352Z,22.43
2019-03-31T05:03:39.276Z,19.73
2019-03-31T05:06:07.011Z,22.00
2019-03-31T05:08:34.826Z,20.00
2019-03-31T05:11:02.596Z,19.13
2019-03-31T05:13:30.580Z,19.80
2019-03-31T05:15:58.366Z,22.43
2019-03-31T05:18:26.513Z,20.87
2019-03-31T05:20:54.246Z,22.27
2019-03-31T05:23:21.987Z,20.53
2019-03-31T05:25:49.763Z,21.90
2019-03-31T05:28:17.476Z,21.47
2019-03-31T05:30:45.963Z,21.97
2019-03-31T05:33:13.764Z,20.60
2019-03-31T05:35:41.531Z,19.00
2019-03-31T05:38:09.283Z,17.60
2019-03-31T05:40:36.963Z,20.03
2019-03-31T05:43:05.587Z,18.10
2019-03-31T05:45:33.230Z,19.20
2019-03-31T05:48:00.914Z,21.97
2019-03-31T05:50:28.658Z,18.17
2019-03-31T05:52:56.720Z,18.57
2019-03-31T05:55:24.440Z,20.00
2019-03-31T05:57:52.226Z,19.90
2019-03-31T06:00:30.184Z,19.43
2019-03-31T06:02:57.856Z,20.37
2019-03-31T06:05:25.647Z,18.40
2019-03-31T06:07:53.484Z,19.93
2019-03-31T06:10:21.426Z,22.73
2019-03-31T06:12:49.062Z,22.67
2019-03-31T06:15:16.846Z,20.57
2019-03-31T06:17:44.651Z,23.23
2019-03-31T06:20:12.399Z,22.63
2019-03-31T06:22:40.283Z,22.47
2019-03-31T06:25:08.053Z,21.80
2019-03-31T06:27:35.723Z,20.47
2019-03-31T06:30:04.460Z,21.27
2019-03-31T06:32:33.412Z,20.07
2019-03-31T06:35:01.251Z,23.17
2019-03-31T06:37:29.047Z,24.97
2019-03-31T06:39:56.812Z,32.27
2019-03-31T06:42:24.583Z,27.33
2019-03-31T06:44:52.478Z,24.00
2019-03-31T06:47:20.475Z,24.10
2019-03-31T06:49:48.247Z,30.73
2019-03-31T06:52:16.079Z,26.77
2019-03-31T06:54:43.832Z,23.67
2019-03-31T06:57:11.492Z,22.13
2019-03-31T06:59:39.289Z,22.83
2019-03-31T07:02:07.301Z,24.23
2019-03-31T07:04:35.123Z,22.73
2019-03-31T07:07:02.901Z,24.10
2019-03-31T07:09:30.936Z,25.13
2019-03-31T07:11:58.748Z,36.30
2019-03-31T07:14:26.523Z,43.73
2019-03-31T07:16:54.316Z,36.03
2019-03-31T07:19:22.322Z,31.37
2019-03-31T07:21:50.118Z,33.13
2019-03-31T07:24:17.892Z,28.00
2019-03-31T07:26:45.702Z,29.40
2019-03-31T07:29:13.362Z,31.70
2019-03-31T07:31:41.056Z,31.90
2019-03-31T07:34:08.687Z,34.70
2019-03-31T07:36:36.522Z,30.20
2019-03-31T07:39:05.772Z,33.23
2019-03-31T07:41:34.002Z,27.47
2019-03-31T07:44:01.903Z,32.03
2019-03-31T07:46:29.940Z,26.70
2019-03-31T07:48:57.717Z,32.30
2019-03-31T07:51:25.501Z,32.43
2019-03-31T07:53:53.266Z,33.23
2019-03-31T07:56:21.049Z,35.30
2019-03-31T07:58:48.842Z,31.27
2019-03-31T08:01:16.515Z,35.93
2019-03-31T08:03:44.268Z,35.70
2019-03-31T08:06:12.027Z,38.00
2019-03-31T08:08:39.823Z,39.87
2019-03-31T08:11:07.596Z,34.67
2019-03-31T08:13:35.602Z,35.00
2019-03-31T08:16:03.359Z,30.70
2019-03-31T08:18:31.098Z,42.43
2019-03-31T08:20:58.867Z,55.27
2019-03-31T08:23:26.604Z,46.17
2019-03-31T08:25:54.408Z,31.47
2019-03-31T08:28:22.792Z,33.00
2019-03-31T08:30:50.589Z,34.57
2019-03-31T08:33:18.323Z,43.57
2019-03-31T08:35:47.763Z,40.00
2019-03-31T08:38:15.679Z,42.80
2019-03-31T08:40:43.452Z,38.30
2019-03-31T08:43:11.260Z,42.90
2019-03-31T08:45:38.911Z,39.77
2019-03-31T08:48:06.948Z,41.80
2019-03-31T08:50:34.975Z,39.80
2019-03-31T08:53:03.026Z,43.57
2019-03-31T08:55:30.699Z,36.57
2019-03-31T08:57:58.562Z,39.13
2019-03-31T09:00:55.103Z,37.27
2019-03-31T09:03:22.823Z,31.37
2019-03-31T09:06:00.968Z,36.10
2019-03-31T09:08:20.188Z,44.97
2019-03-31T09:10:48.071Z,37.27
2019-03-31T09:13:15.841Z,34.70
2019-03-31T09:15:43.699Z,50.67
2019-03-31T09:18:11.375Z,44.00
2019-03-31T09:20:39.188Z,42.83
2019-03-31T09:23:06.924Z,51.00
2019-03-31T09:25:34.720Z,38.90
2019-03-31T09:28:02.501Z,42.40
2019-03-31T09:30:30.301Z,40.30
2019-03-31T09:32:58.103Z,45.90
2019-03-31T09:35:25.875Z,43.93
2019-03-31T09:37:53.630Z,44.27
2019-03-31T09:40:21.414Z,43.77
2019-03-31T09:42:49.225Z,43.73
2019-03-31T09:45:17.252Z,39.40
2019-03-31T09:47:45.045Z,46.07
2019-03-31T09:50:17.034Z,42.33
2019-03-31T09:52:43.085Z,43.37
2019-03-31T09:55:11.386Z,41.03
2019-03-31T09:57:39.178Z,37.93
2019-03-31T10:00:10.198Z,41.57
2019-03-31T10:02:38.112Z,40.10
2019-03-31T10:05:07.371Z,44.10
2019-03-31T10:07:36.207Z,53.77
2019-03-31T10:10:05.174Z,81.27
2019-03-31T10:12:32.815Z,43.97
2019-03-31T10:15:00.592Z,82.83
2019-03-31T10:17:28.232Z,56.20
2019-03-31T10:19:55.934Z,47.87
2019-03-31T10:22:24.631Z,71.63
2019-03-31T10:24:52.409Z,115.20
2019-03-31T10:27:20.068Z,50.10
2019-03-31T10:29:47.734Z,78.17
2019-03-31T10:32:15.391Z,56.23
2019-03-31T10:34:43.067Z,42.10
2019-03-31T10:37:10.794Z,41.60
2019-03-31T10:39:38.760Z,40.70
2019-03-31T10:42:06.865Z,42.10
2019-03-31T10:44:34.733Z,42.53
2019-03-31T10:47:02.476Z,40.37
2019-03-31T10:49:30.243Z,42.17
2019-03-31T10:51:58.031Z,41.40
2019-03-31T10:54:25.830Z,42.73
2019-03-31T10:56:53.618Z,42.90
2019-03-31T10:59:21.571Z,43.77
2019-03-31T11:01:49.353Z,42.37
2019-03-31T11:04:17.048Z,40.97
2019-03-31T11:06:58.360Z,44.40
2019-03-31T11:09:15.948Z,31.50
2019-03-31T11:11:43.712Z,37.20
2019-03-31T11:14:21.721Z,37.13
2019-03-31T11:16:49.460Z,33.40
2019-03-31T11:19:18.079Z,35.10
2019-03-31T11:21:59.932Z,47.00
2019-03-31T11:24:27.772Z,42.53
2019-03-31T11:26:55.489Z,33.40
2019-03-31T11:29:23.273Z,30.40
2019-03-31T11:31:51.420Z,38.90
2019-03-31T11:34:19.813Z,35.13
2019-03-31T11:36:49.544Z,40.00
2019-03-31T11:39:17.440Z,39.60
2019-03-31T11:41:46.198Z,38.53
2019-03-31T11:44:13.995Z,42.37
2019-03-31T11:46:41.898Z,43.03
2019-03-31T11:49:09.574Z,41.00
2019-03-31T11:51:37.322Z,42.77
2019-03-31T11:54:05.106Z,37.70
2019-03-31T11:56:32.867Z,40.73
2019-03-31T11:59:00.560Z,38.40
2019-03-31T12:01:28.613Z,39.00
2019-03-31T12:03:56.439Z,39.87
2019-03-31T12:06:24.204Z,39.87
2019-03-31T12:08:52.004Z,43.60
2019-03-31T12:11:19.796Z,40.03
2019-03-31T12:13:47.575Z,38.93
2019-03-31T12:16:15.235Z,55.03
2019-03-31T12:18:42.915Z,38.30
2019-03-31T12:21:10.724Z,41.27
2019-03-31T12:23:38.500Z,37.73
2019-03-31T12:26:06.176Z,33.73
2019-03-31T12:28:33.997Z,39.20
2019-03-31T12:31:01.768Z,32.50
2019-03-31T12:33:29.472Z,36.00
2019-03-31T12:35:57.423Z,38.13
2019-03-31T12:38:25.115Z,29.00
2019-03-31T12:40:52.900Z,30.30
2019-03-31T12:43:20.667Z,27.90
2019-03-31T12:45:48.784Z,35.67
2019-03-31T12:48:16.581Z,22.40
2019-03-31T12:50:44.374Z,27.83
2019-03-31T12:53:12.019Z,33.47
2019-03-31T12:55:39.661Z,27.73
2019-03-31T12:58:07.437Z,23.73
2019-03-31T13:00:35.249Z,19.97
2019-03-31T13:03:03.056Z,27.53
2019-03-31T13:05:30.715Z,29.07
2019-03-31T13:07:58.496Z,22.97
2019-03-31T13:10:26.203Z,33.50
2019-03-31T13:12:53.996Z,39.57
2019-03-31T13:15:21.767Z,35.90
2019-03-31T13:17:49.544Z,33.23
2019-03-31T13:20:17.368Z,30.57
2019-03-31T13:22:46.076Z,24.23
2019-03-31T13:25:13.865Z,31.83
2019-03-31T13:27:41.527Z,29.70
2019-03-31T13:30:09.736Z,31.10
2019-03-31T13:32:37.533Z,32.53
2019-03-31T13:35:08.653Z,28.10
2019-03-31T13:37:36.492Z,30.30
2019-03-31T13:40:04.499Z,31.40
2019-03-31T13:42:32.304Z,21.20
2019-03-31T13:44:59.959Z,29.13
2019-03-31T13:47:27.629Z,29.70
2019-03-31T13:49:55.440Z,28.07
2019-03-31T13:52:23.238Z,25.93
2019-03-31T13:54:51.011Z,30.20
2019-03-31T13:57:19.443Z,25.10
2019-03-31T13:59:47.443Z,30.43
2019-03-31T14:02:15.224Z,28.30
2019-03-31T14:04:51.450Z,16.47
2019-03-31T14:07:12.395Z,29.90
2019-03-31T14:09:40.167Z,32.90
2019-03-31T14:12:07.948Z,29.57
2019-03-31T14:14:35.717Z,31.10
2019-03-31T14:17:03.528Z,31.20
2019-03-31T14:19:31.292Z,30.60
2019-03-31T14:21:59.070Z,32.87
2019-03-31T14:24:27.218Z,26.77
2019-03-31T14:26:55.127Z,42.73
2019-03-31T14:29:22.965Z,49.10
2019-03-31T14:31:52.159Z,36.63
2019-03-31T14:34:20.060Z,33.23
2019-03-31T14:36:47.832Z,28.50
2019-03-31T14:39:17.236Z,27.03
2019-03-31T14:41:45.147Z,25.67
2019-03-31T14:44:12.957Z,26.17
2019-03-31T14:46:44.795Z,28.00
2019-03-31T14:49:12.738Z,42.23
2019-03-31T14:51:40.392Z,27.70
2019-03-31T14:54:08.184Z,33.40
2019-03-31T14:56:35.927Z,23.33
2019-03-31T14:59:03.755Z,29.90
2019-03-31T15:01:31.527Z,18.50
2019-03-31T15:03:59.524Z,20.33
2019-03-31T15:06:27.493Z,16.53
2019-03-31T15:08:55.272Z,39.23
2019-03-31T15:11:23.053Z,16.23
2019-03-31T15:13:50.788Z,12.03
2019-03-31T15:16:18.519Z,15.03
2019-03-31T15:18:46.370Z,11.73
2019-03-31T15:21:14.327Z,17.40
2019-03-31T15:23:42.099Z,13.27
2019-03-31T15:26:09.780Z,15.17
2019-03-31T15:28:37.536Z,13.17
2019-03-31T15:31:05.215Z,13.90
2019-03-31T15:33:32.891Z,12.77
2019-03-31T15:36:00.643Z,24.17
2019-03-31T15:38:28.332Z,16.50
2019-03-31T15:40:56.042Z,9.67
2019-03-31T15:43:23.965Z,9.07
2019-03-31T15:45:51.656Z,8.47
2019-03-31T15:48:19.406Z,9.00
2019-03-31T15:50:47.183Z,6.10
2019-03-31T15:53:14.857Z,9.33
2019-03-31T15:55:42.615Z,10.47
2019-03-31T15:58:10.350Z,9.33
2019-03-31T16:00:38.151Z,8.57
2019-03-31T16:03:06.292Z,6.80
2019-03-31T16:05:34.153Z,9.73
2019-03-31T16:08:01.347Z,8.83
2019-03-31T16:10:28.595Z,9.07
2019-03-31T16:12:55.745Z,6.03
2019-03-31T16:15:22.941Z,8.17
2019-03-31T16:17:50.064Z,6.00
2019-03-31T16:20:17.186Z,5.73
2019-03-31T16:22:44.348Z,8.20
2019-03-31T16:25:29.599Z,7.17
2019-03-31T16:27:56.802Z,6.50
2019-03-31T16:30:24.003Z,7.07
2019-03-31T16:32:51.223Z,8.43
2019-03-31T16:35:18.369Z,9.30
2019-03-31T16:37:45.400Z,9.03
2019-03-31T16:40:12.697Z,11.00
2019-03-31T16:42:40.136Z,5.40
2019-03-31T16:45:07.388Z,7.23
2019-03-31T16:47:37.015Z,8.20
2019-03-31T16:50:05.459Z,5.80
2019-03-31T16:52:32.451Z,5.83
2019-03-31T16:54:59.983Z,6.00
2019-03-31T16:57:27.148Z,5.50
2019-03-31T16:59:54.388Z,5.00
2019-03-31T17:02:21.600Z,5.83
2019-03-31T17:04:48.700Z,5.00
2019-03-31T17:07:15.996Z,4.90
2019-03-31T17:09:51.282Z,4.80
2019-03-31T17:12:12.079Z,4.90
2019-03-31T17:14:39.270Z,4.77
2019-03-31T17:17:06.679Z,5.20
2019-03-31T17:19:34.105Z,4.70
2019-03-31T17:22:01.721Z,4.63
2019-03-31T17:24:28.744Z,6.10
2019-03-31T17:26:55.889Z,12.47
2019-03-31T17:29:23.134Z,6.90
2019-03-31T17:31:50.257Z,5.67
2019-03-31T17:34:17.324Z,5.30
2019-03-31T17:36:44.448Z,7.13
2019-03-31T17:39:11.432Z,7.77
2019-03-31T17:41:38.679Z,9.07
2019-03-31T17:44:05.852Z,8.07
2019-03-31T17:46:32.974Z,7.40
2019-03-31T17:49:01.145Z,6.10
2019-03-31T17:51:28.875Z,5.93
2019-03-31T17:53:56.132Z,5.57
2019-03-31T17:56:23.538Z,5.40
2019-03-31T17:58:50.532Z,5.73
2019-03-31T18:01:17.827Z,5.90
2019-03-31T18:03:44.855Z,6.47
2019-03-31T18:06:11.912Z,5.33
2019-03-31T18:08:42.303Z,5.80
2019-03-31T18:11:08.120Z,5.87
2019-03-31T18:13:36.836Z,7.20
2019-03-31T18:16:04.030Z,5.53
2019-03-31T18:18:31.168Z,6.10
2019-03-31T18:20:59.353Z,5.80
2019-03-31T18:23:26.776Z,6.57
2019-03-31T18:25:54.271Z,7.40
2019-03-31T18:28:21.295Z,6.97
2019-03-31T18:30:48.391Z,6.90
2019-03-31T18:33:15.484Z,9.00
2019-03-31T18:35:43.462Z,8.40
2019-03-31T18:38:11.375Z,43.00
2019-03-31T18:40:38.904Z,42.53
2019-03-31T18:43:06.648Z,8.90
2019-03-31T18:45:33.839Z,25.73
2019-03-31T18:48:01.549Z,71.77
2019-03-31T18:50:29.264Z,52.87
2019-03-31T18:52:56.523Z,71.40
2019-03-31T18:55:31.086Z,59.17
2019-03-31T18:58:20.803Z,50.50
2019-03-31T19:00:54.348Z,13.27
2019-03-31T19:03:40.016Z,24.70
2019-03-31T19:06:20.779Z,8.67
2019-03-31T19:09:14.567Z,12.70
2019-03-31T19:11:59.397Z,23.30
2019-03-31T19:14:54.546Z,15.00
2019-03-31T19:17:31.527Z,22.97
2019-03-31T19:20:26.746Z,10.30
2019-03-31T19:23:22.253Z,11.00
2019-03-31T19:26:07.842Z,10.53
2019-03-31T19:28:55.679Z,9.97
2019-03-31T19:31:36.262Z,7.70
2019-03-31T19:34:35.068Z,10.73
2019-03-31T19:37:33.862Z,9.50
2019-03-31T19:40:19.504Z,7.20
2019-03-31T19:43:18.287Z,8.00
2019-03-31T19:46:05.690Z,7.77
2019-03-31T19:48:52.549Z,7.60
2019-03-31T19:51:26.992Z,8.10
2019-03-31T19:54:08.699Z,7.53
2019-03-31T19:56:43.058Z,8.33
2019-03-31T19:59:29.892Z,7.50
2019-03-31T20:02:25.153Z,7.33
2019-03-31T20:05:02.768Z,8.90
2019-03-31T20:07:49.128Z,7.80
2019-03-31T20:10:23.481Z,8.23
2019-03-31T20:13:15.884Z,7.90
2019-03-31T20:16:07.144Z,9.90
2019-03-31T20:18:54.722Z,9.20
2019-03-31T20:21:47.375Z,10.13
2019-03-31T20:24:33.114Z,9.47
2019-03-31T20:27:08.904Z,8.93
2019-03-31T20:29:57.655Z,8.27
2019-03-31T20:32:37.126Z,6.97
2019-03-31T20:35:33.933Z,5.80
2019-03-31T20:38:12.096Z,6.63
2019-03-31T20:40:57.554Z,6.07
2019-03-31T20:43:33.699Z,6.80
2019-03-31T20:46:04.373Z,6.50
2019-03-31T20:48:30.903Z,5.27
2019-03-31T20:50:57.913Z,5.93
2019-03-31T20:53:25.040Z,6.07
2019-03-31T20:55:52.282Z,5.67
2019-03-31T20:58:21.374Z,5.00
2019-03-31T21:00:48.586Z,5.30
2019-03-31T21:03:15.607Z,4.50
2019-03-31T21:05:43.480Z,5.73
2019-03-31T21:08:12.605Z,5.30
2019-03-31T21:10:41.020Z,5.20
2019-03-31T21:13:11.343Z,4.40
2019-03-31T21:15:38.419Z,4.50
2019-03-31T21:18:05.982Z,5.20
2019-03-31T21:20:34.163Z,5.17
2019-03-31T21:23:01.454Z,4.50
2019-03-31T21:25:28.952Z,5.10
2019-03-31T21:27:56.105Z,5.23
2019-03-31T21:30:23.347Z,3.40
2019-03-31T21:32:50.586Z,5.43
2019-03-31T21:35:17.820Z,4.93
2019-03-31T21:37:45.463Z,4.30
2019-03-31T21:40:12.813Z,4.17
2019-03-31T21:42:39.895Z,4.90
2019-03-31T21:45:07.148Z,4.50
2019-03-31T21:47:34.371Z,3.43
2019-03-31T21:50:01.591Z,4.87
2019-03-31T21:52:28.682Z,4.20
2019-03-31T21:54:55.816Z,4.10
2019-03-31T21:57:23.009Z,3.50
2019-03-31T21:59:50.083Z,4.00
2019-03-31T22:02:17.471Z,3.80
2019-03-31T22:04:44.659Z,4.60
2019-03-31T22:07:11.849Z,3.80
2019-03-31T22:09:38.973Z,2.97
2019-03-31T22:12:06.079Z,2.50
2019-03-31T22:14:33.093Z,4.17
2019-03-31T22:17:00.140Z,3.47
2019-03-31T22:19:27.127Z,3.60
2019-03-31T22:21:54.130Z,2.67
2019-03-31T22:24:21.268Z,2.80
2019-03-31T22:26:48.391Z,2.73
2019-03-31T22:29:15.391Z,2.20
2019-03-31T22:31:42.536Z,4.03
2019-03-31T22:34:09.801Z,3.03
2019-03-31T22:36:36.940Z,2.23
2019-03-31T22:39:06.459Z,3.43
2019-03-31T22:41:33.580Z,4.00
2019-03-31T22:44:00.638Z,2.73
2019-03-31T22:46:27.756Z,3.90
2019-03-31T22:48:54.879Z,3.13
2019-03-31T22:51:21.996Z,3.57
2019-03-31T22:53:49.027Z,2.63
2019-03-31T22:56:16.034Z,4.13
2019-03-31T22:58:43.142Z,2.67
2019-03-31T23:01:10.252Z,2.63
2019-03-31T23:03:37.528Z,2.00
2019-03-31T23:06:04.702Z,3.17
2019-03-31T23:08:31.917Z,2.40
2019-03-31T23:10:59.135Z,2.30
2019-03-31T23:13:26.534Z,2.30
2019-03-31T23:15:53.573Z,2.40
2019-03-31T23:18:20.593Z,2.70
2019-03-31T23:20:47.795Z,1.77
2019-03-31T23:23:14.845Z,2.50
2019-03-31T23:25:41.953Z,2.83
2019-03-31T23:28:09.076Z,3.67
2019-03-31T23:30:36.191Z,2.47
2019-03-31T23:33:03.416Z,2.43
2019-03-31T23:35:30.427Z,2.63
2019-03-31T23:37:57.540Z,2.70
2019-03-31T23:40:24.963Z,2.80
2019-03-31T23:42:51.988Z,2.40
2019-03-31T23:45:19.079Z,3.20
2019-03-31T23:47:46.223Z,3.40
2019-03-31T23:50:13.318Z,2.97
2019-03-31T23:52:40.543Z,2.80
2019-03-31T23:55:07.735Z,2.70
2019-03-31T23:57:41.672Z,2.57
